createdAt,value
2023-04-18T00:03:00.907Z,108.70
2023-04-18T00:06:45.095Z,118.30
2023-04-18T00:09:38.320Z,117.00
2023-04-18T00:12:11.656Z,113.90
2023-04-18T00:14:41.268Z,109.10
2023-04-18T00:17:10.609Z,109.10
2023-04-18T00:19:43.525Z,120.70
2023-04-18T00:22:43.036Z,103.70
2023-04-18T00:25:12.486Z,103.60
2023-04-18T00:27:42.906Z,109.40
2023-04-18T00:30:21.386Z,93.00
2023-04-18T00:36:40.161Z,105.40
2023-04-18T00:43:28.429Z,108.90
2023-04-18T00:45:59.560Z,114.70
2023-04-18T00:48:39.324Z,97.40
2023-04-18T00:51:09.865Z,99.90
2023-04-18T00:53:42.347Z,101.70
2023-04-18T00:56:11.754Z,102.00
2023-04-18T00:58:41.150Z,94.10
2023-04-18T01:01:11.648Z,106.20
2023-04-18T01:03:46.835Z,121.10
2023-04-18T01:06:17.071Z,108.20
2023-04-18T01:08:46.111Z,106.00
2023-04-18T01:11:14.593Z,96.20
2023-04-18T01:13:43.476Z,119.40
2023-04-18T01:16:12.515Z,91.40
2023-04-18T01:18:41.188Z,99.50
2023-04-18T01:21:10.259Z,113.30
2023-04-18T01:23:39.556Z,96.20
2023-04-18T01:26:08.038Z,85.70
2023-04-18T01:29:01.082Z,114.00
2023-04-18T01:31:36.350Z,122.40
2023-04-18T01:34:06.055Z,123.10
2023-04-18T01:36:36.981Z,105.40
2023-04-18T01:42:16.248Z,105.30
2023-04-18T01:44:46.045Z,122.00
2023-04-18T01:47:17.873Z,99.50
2023-04-18T01:49:48.551Z,97.20
2023-04-18T01:52:18.145Z,85.70
2023-04-18T01:55:12.275Z,95.50
2023-04-18T01:57:40.515Z,101.70
2023-04-18T02:00:11.024Z,119.30
2023-04-18T02:02:45.479Z,90.60
2023-04-18T02:05:39.220Z,105.30
2023-04-18T02:08:09.321Z,127.50
2023-04-18T02:10:39.772Z,101.70
2023-04-18T02:13:08.257Z,106.10
2023-04-18T02:15:37.782Z,135.60
2023-04-18T02:18:07.265Z,104.60
2023-04-18T02:20:36.688Z,98.40
2023-04-18T02:23:05.990Z,125.60
2023-04-18T02:25:34.548Z,109.00
2023-04-18T02:28:03.142Z,107.50
2023-04-18T02:30:32.874Z,112.80
2023-04-18T02:33:03.822Z,92.50
2023-04-18T02:35:32.475Z,107.60
2023-04-18T02:38:01.023Z,86.90
2023-04-18T02:40:29.950Z,97.60
2023-04-18T02:43:02.311Z,120.30
2023-04-18T02:45:31.309Z,94.80
2023-04-18T02:48:01.699Z,95.70
2023-04-18T02:50:30.496Z,96.10
2023-04-18T02:52:59.118Z,109.80
2023-04-18T02:55:41.014Z,104.80
2023-04-18T02:58:09.887Z,112.10
2023-04-18T03:01:05.536Z,107.10
2023-04-18T03:04:08.410Z,116.20
2023-04-18T03:06:44.039Z,120.50
2023-04-18T03:09:12.933Z,104.80
2023-04-18T03:11:50.751Z,103.40
2023-04-18T03:14:22.082Z,125.70
2023-04-18T03:16:55.222Z,102.90
2023-04-18T03:19:27.540Z,116.80
2023-04-18T03:21:56.433Z,121.00
2023-04-18T03:24:25.120Z,115.30
2023-04-18T03:26:54.424Z,116.70
2023-04-18T03:29:25.050Z,108.60
2023-04-18T03:31:53.541Z,111.00
2023-04-18T03:34:22.534Z,97.50
2023-04-18T03:36:51.621Z,109.00
2023-04-18T03:39:20.099Z,100.50
2023-04-18T03:41:49.703Z,118.20
2023-04-18T03:44:18.594Z,103.00
2023-04-18T03:46:47.591Z,115.20
2023-04-18T03:49:16.377Z,102.60
2023-04-18T03:51:50.073Z,108.90
2023-04-18T03:54:19.378Z,113.30
2023-04-18T03:56:48.062Z,109.50
2023-04-18T03:59:16.760Z,97.30
2023-04-18T04:01:47.904Z,96.20
2023-04-18T04:04:16.809Z,91.00
2023-04-18T04:06:46.804Z,112.50
2023-04-18T04:09:15.595Z,85.20
2023-04-18T04:11:46.029Z,93.00
2023-04-18T04:14:16.122Z,103.00
2023-04-18T04:16:48.061Z,79.90
2023-04-18T04:19:19.574Z,90.30
2023-04-18T04:21:56.642Z,99.40
2023-04-18T04:24:50.505Z,97.20
2023-04-18T04:27:25.251Z,88.00
2023-04-18T04:29:54.449Z,93.10
2023-04-18T04:32:22.995Z,79.50
2023-04-18T04:34:52.164Z,87.00
2023-04-18T04:37:23.029Z,74.70
2023-04-18T04:40:06.514Z,81.60
2023-04-18T04:42:54.513Z,84.10
2023-04-18T04:45:27.351Z,94.90
2023-04-18T04:47:56.311Z,83.40
2023-04-18T04:50:24.978Z,75.60
2023-04-18T04:52:53.666Z,72.30
2023-04-18T04:55:51.947Z,92.00
2023-04-18T04:58:21.143Z,82.20
2023-04-18T05:01:08.314Z,93.80
2023-04-18T05:03:52.929Z,83.30
2023-04-18T05:06:23.044Z,82.20
2023-04-18T05:14:28.384Z,86.70
2023-04-18T05:17:56.239Z,86.30
2023-04-18T05:20:50.777Z,85.90
2023-04-18T05:23:48.156Z,73.40
2023-04-18T05:26:50.801Z,84.60
2023-04-18T05:29:26.792Z,96.90
2023-04-18T05:31:55.671Z,82.30
2023-04-18T05:34:28.242Z,80.50
2023-04-18T05:37:31.042Z,77.60
2023-04-18T05:40:09.231Z,75.70
2023-04-18T05:42:37.927Z,84.80
2023-04-18T05:45:07.875Z,86.80
2023-04-18T05:48:26.310Z,80.30
2023-04-18T05:51:06.369Z,73.70
2023-04-18T05:53:35.673Z,75.50
2023-04-18T05:56:11.647Z,78.20
2023-04-18T05:58:42.069Z,93.50
2023-04-18T06:01:14.968Z,68.90
2023-04-18T06:03:46.261Z,74.70
2023-04-18T06:06:15.402Z,59.40
2023-04-18T06:08:45.300Z,69.60
2023-04-18T06:11:15.658Z,80.50
2023-04-18T06:13:45.212Z,60.70
2023-04-18T06:17:02.608Z,59.50
2023-04-18T06:20:01.115Z,61.30
2023-04-18T06:22:29.812Z,70.50
2023-04-18T06:25:56.732Z,63.80
2023-04-18T06:29:28.185Z,71.20
2023-04-18T06:32:44.319Z,61.70
2023-04-18T06:36:05.638Z,63.60
2023-04-18T06:38:39.453Z,63.90
2023-04-18T06:41:17.048Z,42.50
2023-04-18T06:44:13.331Z,49.90
2023-04-18T06:46:42.921Z,58.20
2023-04-18T06:49:42.604Z,66.90
2023-04-18T06:52:12.955Z,70.80
2023-04-18T06:54:41.503Z,51.60
2023-04-18T06:58:01.708Z,56.70
2023-04-18T07:00:30.778Z,52.30
2023-04-18T07:02:59.456Z,63.30
2023-04-18T07:10:34.534Z,44.60
2023-04-18T07:14:02.133Z,44.50
2023-04-18T07:17:15.971Z,50.00
2023-04-18T07:19:45.043Z,50.00
2023-04-18T07:22:38.909Z,49.90
2023-04-18T07:25:08.628Z,64.80
2023-04-18T07:27:37.819Z,58.00
2023-04-18T07:30:07.545Z,47.80
2023-04-18T07:32:44.086Z,56.60
2023-04-18T07:35:12.796Z,44.30
2023-04-18T07:37:42.567Z,45.00
2023-04-18T07:40:11.723Z,55.30
2023-04-18T07:42:40.832Z,49.30
2023-04-18T07:45:15.776Z,43.70
2023-04-18T07:47:45.025Z,41.00
2023-04-18T07:50:13.941Z,37.10
2023-04-18T07:52:42.771Z,43.50
2023-04-18T07:55:11.538Z,50.30
2023-04-18T07:57:45.946Z,46.20
2023-04-18T08:00:19.930Z,40.70
2023-04-18T08:02:49.367Z,74.00
2023-04-18T08:05:20.476Z,50.30
2023-04-18T08:07:49.060Z,74.80
2023-04-18T08:10:17.943Z,42.60
2023-04-18T08:12:46.847Z,59.00
2023-04-18T08:15:15.619Z,51.30
2023-04-18T08:17:45.600Z,53.90
2023-04-18T08:20:14.132Z,48.40
2023-04-18T08:22:57.731Z,35.40
2023-04-18T08:25:56.750Z,46.70
2023-04-18T08:28:25.955Z,56.10
2023-04-18T08:30:55.493Z,45.90
2023-04-18T08:33:28.881Z,33.70
2023-04-18T08:35:57.848Z,33.10
2023-04-18T08:38:26.744Z,34.40
2023-04-18T08:40:55.626Z,29.90
2023-04-18T08:43:25.749Z,29.90
2023-04-18T08:45:59.709Z,32.20
2023-04-18T08:48:28.630Z,31.80
2023-04-18T08:51:02.253Z,22.90
2023-04-18T08:54:06.869Z,28.90
2023-04-18T08:56:37.746Z,36.30
2023-04-18T08:59:07.036Z,21.90
2023-04-18T09:02:02.054Z,31.00
2023-04-18T09:04:38.298Z,43.20
2023-04-18T09:07:31.843Z,32.30
2023-04-18T09:10:01.141Z,32.50
2023-04-18T09:15:54.629Z,27.00
2023-04-18T09:18:24.797Z,45.50
2023-04-18T09:21:17.613Z,31.60
2023-04-18T09:24:21.287Z,46.10
2023-04-18T09:26:54.207Z,45.00
2023-04-18T09:29:45.234Z,36.00
2023-04-18T09:32:25.946Z,27.20
2023-04-18T09:34:58.647Z,30.70
2023-04-18T09:41:11.111Z,33.50
2023-04-18T09:44:15.243Z,34.50
2023-04-18T09:46:47.561Z,38.20
2023-04-18T09:49:18.048Z,43.80
2023-04-18T09:52:10.522Z,40.30
2023-04-18T09:54:39.909Z,36.60
2023-04-18T09:57:13.964Z,30.30
2023-04-18T09:59:52.420Z,26.60
2023-04-18T10:02:25.710Z,28.40
2023-04-18T10:04:57.374Z,32.00
2023-04-18T10:08:16.487Z,30.90
2023-04-18T10:11:13.330Z,26.90
2023-04-18T10:13:44.853Z,35.50
2023-04-18T10:16:21.401Z,20.50
2023-04-18T10:18:51.775Z,33.60
2023-04-18T10:21:55.090Z,35.40
2023-04-18T10:24:45.366Z,27.80
2023-04-18T10:27:15.692Z,30.70
2023-04-18T10:29:54.555Z,34.20
2023-04-18T10:32:48.147Z,30.20
2023-04-18T10:35:16.891Z,32.00
2023-04-18T10:37:52.740Z,25.70
2023-04-18T10:40:42.728Z,33.20
2023-04-18T10:43:13.662Z,35.40
2023-04-18T10:45:44.176Z,21.80
2023-04-18T10:48:25.108Z,30.60
2023-04-18T10:51:16.004Z,37.50
2023-04-18T10:53:58.513Z,32.80
2023-04-18T10:56:28.417Z,26.80
2023-04-18T10:59:03.430Z,26.10
2023-04-18T11:01:33.423Z,25.50
2023-04-18T11:09:17.633Z,22.50
2023-04-18T11:12:03.428Z,38.90
2023-04-18T11:15:32.761Z,40.80
2023-04-18T11:18:12.171Z,25.30
2023-04-18T11:21:02.765Z,25.60
2023-04-18T11:27:36.301Z,24.10
2023-04-18T11:35:43.341Z,31.60
2023-04-18T11:39:13.512Z,20.70
2023-04-18T11:42:37.693Z,21.80
2023-04-18T11:45:49.837Z,26.70
2023-04-18T11:48:50.703Z,19.00
2023-04-18T11:52:39.593Z,23.00
2023-04-18T11:55:56.468Z,18.70
2023-04-18T12:05:42.138Z,25.10
2023-04-18T12:09:14.650Z,21.90
2023-04-18T12:12:55.385Z,20.20
2023-04-18T12:15:44.738Z,19.60
2023-04-18T12:18:15.718Z,15.40
2023-04-18T12:20:52.824Z,20.30
2023-04-18T12:23:35.759Z,21.90
2023-04-18T12:26:16.384Z,14.70
2023-04-18T12:28:46.534Z,16.60
2023-04-18T12:31:15.466Z,28.40
2023-04-18T12:33:44.705Z,23.90
2023-04-18T12:36:13.289Z,35.30
2023-04-18T12:38:41.971Z,32.80
2023-04-18T12:41:10.756Z,44.70
2023-04-18T12:43:39.458Z,24.60
2023-04-18T12:46:08.135Z,42.60
2023-04-18T12:48:36.451Z,19.60
2023-04-18T12:51:04.988Z,14.80
2023-04-18T12:53:35.209Z,19.10
2023-04-18T12:56:05.004Z,23.20
2023-04-18T12:58:34.276Z,28.40
2023-04-18T13:01:05.182Z,19.50
2023-04-18T13:03:34.779Z,18.70
2023-04-18T13:13:34.457Z,17.80
2023-04-18T13:16:05.116Z,18.50
2023-04-18T13:18:33.647Z,17.30
2023-04-18T13:21:02.031Z,18.80
2023-04-18T13:23:30.636Z,13.70
2023-04-18T13:25:59.296Z,16.00
2023-04-18T13:28:27.925Z,18.30
2023-04-18T13:30:56.866Z,13.50
2023-04-18T13:33:25.254Z,19.50
2023-04-18T13:35:53.733Z,21.20
2023-04-18T13:38:22.213Z,25.80
2023-04-18T13:40:58.232Z,14.00
2023-04-18T13:43:37.712Z,17.80
2023-04-18T13:46:06.985Z,23.50
2023-04-18T13:48:35.611Z,14.20
2023-04-18T13:51:04.580Z,15.60
2023-04-18T13:53:33.071Z,12.60
2023-04-18T13:56:02.057Z,15.30
2023-04-18T13:58:30.536Z,15.90
2023-04-18T14:00:59.233Z,17.20
2023-04-18T14:03:28.895Z,18.40
2023-04-18T14:06:00.487Z,15.10
2023-04-18T14:08:29.368Z,24.50
2023-04-18T14:10:57.814Z,16.50
2023-04-18T14:13:26.355Z,21.00
2023-04-18T14:15:55.046Z,14.50
2023-04-18T14:18:24.933Z,17.40
2023-04-18T14:20:53.527Z,18.80
2023-04-18T14:23:23.147Z,15.40
2023-04-18T14:25:52.228Z,15.20
2023-04-18T14:28:23.984Z,14.60
2023-04-18T14:30:52.554Z,11.30
2023-04-18T14:33:21.783Z,12.50
2023-04-18T14:35:50.765Z,12.90
2023-04-18T14:38:19.539Z,14.20
2023-04-18T14:40:48.431Z,11.80
2023-04-18T14:43:16.930Z,12.30
2023-04-18T14:45:45.717Z,16.90
2023-04-18T14:48:15.082Z,13.90
2023-04-18T14:50:46.365Z,15.50
2023-04-18T14:53:14.707Z,24.20
2023-04-18T14:55:45.152Z,33.80
2023-04-18T14:58:16.044Z,20.40
2023-04-18T15:00:46.090Z,14.40
2023-04-18T15:03:14.830Z,13.90
2023-04-18T15:05:46.701Z,12.30
2023-04-18T15:08:16.466Z,27.00
2023-04-18T15:10:46.895Z,15.90
2023-04-18T15:13:16.917Z,25.40
2023-04-18T15:15:52.157Z,20.30
2023-04-18T15:18:21.732Z,24.00
2023-04-18T15:20:52.082Z,28.40
2023-04-18T15:23:20.797Z,29.20
2023-04-18T15:25:49.559Z,25.00
2023-04-18T15:28:19.476Z,28.20
2023-04-18T15:30:48.059Z,23.40
2023-04-18T15:33:19.321Z,21.50
2023-04-18T15:35:48.416Z,23.30
2023-04-18T15:38:17.090Z,29.30
2023-04-18T15:40:46.061Z,27.60
2023-04-18T15:43:14.669Z,26.90
2023-04-18T15:45:45.014Z,24.80
2023-04-18T15:48:14.143Z,22.20
2023-04-18T15:50:43.077Z,19.10
2023-04-18T15:53:12.183Z,20.20
2023-04-18T15:55:40.947Z,23.30
2023-04-18T15:58:09.428Z,16.30
2023-04-18T16:00:38.162Z,20.90
2023-04-18T16:05:38.655Z,21.90
2023-04-18T16:08:09.119Z,18.50
2023-04-18T16:10:38.180Z,25.90
2023-04-18T16:13:07.121Z,27.90
2023-04-18T16:15:36.368Z,24.60
2023-04-18T16:18:04.914Z,26.50
2023-04-18T16:20:33.850Z,25.50
2023-04-18T16:23:02.451Z,21.40
2023-04-18T16:25:31.112Z,24.40
2023-04-18T16:28:00.523Z,31.30
2023-04-18T16:30:29.000Z,29.00
2023-04-18T16:32:57.748Z,39.90
2023-04-18T16:35:26.775Z,29.30
2023-04-18T16:37:55.681Z,66.50
2023-04-18T16:40:24.164Z,70.40
2023-04-18T16:42:53.166Z,78.10
2023-04-18T16:45:22.754Z,76.00
2023-04-18T16:47:51.935Z,82.10
2023-04-18T16:50:23.021Z,77.90
2023-04-18T16:52:51.884Z,82.10
2023-04-18T16:55:20.570Z,92.00
2023-04-18T16:57:49.254Z,83.90
2023-04-18T17:00:18.453Z,97.60
2023-04-18T17:02:48.631Z,100.60
2023-04-18T17:05:18.879Z,103.10
2023-04-18T17:08:00.289Z,90.30
2023-04-18T17:11:45.046Z,78.70
2023-04-18T17:14:18.678Z,98.00
2023-04-18T17:16:53.454Z,87.40
2023-04-18T17:19:24.126Z,77.50
2023-04-18T17:21:52.809Z,86.10
2023-04-18T17:24:22.712Z,70.60
2023-04-18T17:26:58.183Z,77.40
2023-04-18T17:29:26.858Z,101.70
2023-04-18T17:31:55.684Z,85.70
2023-04-18T17:34:25.239Z,82.30
2023-04-18T17:36:53.725Z,83.10
2023-04-18T17:39:33.883Z,83.40
2023-04-18T17:42:02.351Z,82.00
2023-04-18T17:44:31.033Z,84.90
2023-04-18T17:47:08.329Z,84.70
2023-04-18T17:49:38.450Z,113.80
2023-04-18T17:52:32.727Z,98.10
2023-04-18T17:55:53.853Z,118.10
2023-04-18T17:58:55.278Z,104.30
2023-04-18T18:04:20.883Z,132.60
2023-04-18T18:07:37.442Z,109.90
2023-04-18T18:10:23.854Z,114.90
2023-04-18T18:12:55.499Z,130.00
2023-04-18T18:15:32.265Z,117.50
2023-04-18T18:18:18.777Z,115.10
2023-04-18T18:23:16.676Z,110.70
2023-04-18T18:25:46.266Z,142.50
2023-04-18T18:28:14.965Z,117.20
2023-04-18T18:31:10.291Z,115.00
2023-04-18T18:34:01.822Z,117.50
2023-04-18T18:36:33.911Z,111.90
2023-04-18T18:39:25.614Z,139.50
2023-04-18T18:41:55.076Z,126.40
2023-04-18T18:44:23.946Z,112.80
2023-04-18T18:47:00.832Z,121.40
2023-04-18T18:49:29.425Z,117.90
2023-04-18T18:52:09.917Z,113.20
2023-04-18T18:55:06.349Z,136.40
2023-04-18T18:57:42.477Z,114.70
2023-04-18T19:01:01.518Z,118.10
2023-04-18T19:03:39.687Z,145.00
2023-04-18T19:07:22.592Z,114.50
2023-04-18T19:10:16.703Z,111.00
2023-04-18T19:12:45.459Z,111.70
2023-04-18T19:15:14.966Z,103.40
2023-04-18T19:17:43.776Z,118.80
2023-04-18T19:21:02.970Z,93.80
2023-04-18T19:23:56.333Z,113.90
2023-04-18T19:26:57.729Z,111.50
2023-04-18T19:29:32.707Z,101.60
2023-04-18T19:32:04.067Z,108.70
2023-04-18T19:34:58.934Z,96.50
2023-04-18T19:40:56.821Z,135.70
2023-04-18T19:43:59.105Z,106.00
2023-04-18T19:47:01.849Z,107.50
2023-04-18T19:49:41.911Z,121.10
2023-04-18T19:52:44.798Z,124.10
2023-04-18T19:55:37.434Z,107.20
2023-04-18T19:58:38.896Z,117.10
2023-04-18T20:01:10.542Z,98.30
2023-04-18T20:06:09.170Z,102.60
2023-04-18T20:08:41.745Z,105.90
2023-04-18T20:11:12.245Z,121.10
2023-04-18T20:13:41.665Z,117.60
2023-04-18T20:16:11.404Z,85.90
2023-04-18T20:18:41.944Z,123.30
2023-04-18T20:21:11.310Z,99.50
2023-04-18T20:23:42.364Z,109.20
2023-04-18T20:26:11.333Z,105.80
2023-04-18T20:28:40.633Z,106.70
2023-04-18T20:31:09.389Z,93.70
2023-04-18T20:33:38.632Z,96.30
2023-04-18T20:36:08.492Z,102.30
2023-04-18T20:38:37.185Z,96.80
2023-04-18T20:41:06.656Z,100.30
2023-04-18T20:43:37.535Z,84.50
2023-04-18T20:46:07.961Z,87.10
2023-04-18T20:48:36.334Z,102.50
2023-04-18T20:51:05.954Z,87.50
2023-04-18T20:53:35.357Z,98.20
2023-04-18T20:56:05.794Z,91.70
2023-04-18T20:58:34.388Z,90.20
2023-04-18T21:01:03.322Z,100.20
2023-04-18T21:03:32.686Z,103.50
2023-04-18T21:06:02.212Z,118.80
2023-04-18T21:08:32.010Z,92.90
2023-04-18T21:11:00.352Z,98.10
2023-04-18T21:13:28.916Z,94.60
2023-04-18T21:15:57.480Z,101.80
2023-04-18T21:18:26.024Z,98.00
2023-04-18T21:20:54.754Z,98.60
2023-04-18T21:23:26.058Z,97.40
2023-04-18T21:25:57.218Z,117.70
2023-04-18T21:28:25.992Z,109.50
2023-04-18T21:30:55.080Z,109.50
2023-04-18T21:33:24.901Z,120.20
2023-04-18T21:35:53.276Z,120.30
2023-04-18T21:38:25.565Z,123.20
2023-04-18T21:40:54.022Z,129.90
2023-04-18T21:43:22.621Z,118.00
2023-04-18T21:45:51.437Z,111.00
2023-04-18T21:48:20.090Z,124.20
2023-04-18T21:50:55.125Z,117.80
2023-04-18T21:53:23.707Z,108.00
2023-04-18T21:55:52.178Z,117.90
2023-04-18T21:58:20.666Z,116.30
2023-04-18T22:00:50.082Z,93.00
2023-04-18T22:03:18.757Z,107.90
2023-04-18T22:05:47.581Z,133.70
2023-04-18T22:08:16.540Z,107.30
2023-04-18T22:10:46.469Z,110.40
2023-04-18T22:13:14.931Z,104.40
2023-04-18T22:15:43.446Z,119.90
2023-04-18T22:18:14.732Z,97.10
2023-04-18T22:20:43.440Z,97.90
2023-04-18T22:23:12.293Z,102.10
2023-04-18T22:25:41.221Z,107.50
2023-04-18T22:28:09.811Z,109.10
2023-04-18T22:30:38.713Z,111.70
2023-04-18T22:33:07.179Z,110.00
2023-04-18T22:35:35.980Z,123.30
2023-04-18T22:38:04.556Z,118.70
2023-04-18T22:40:33.034Z,113.10
2023-04-18T22:43:01.439Z,114.60
2023-04-18T22:45:29.997Z,112.90
2023-04-18T22:47:58.612Z,115.10
2023-04-18T22:50:27.573Z,108.10
2023-04-18T22:52:57.481Z,116.80
2023-04-18T22:55:26.295Z,98.80
2023-04-18T22:57:54.766Z,87.70
2023-04-18T23:00:23.765Z,108.20
2023-04-18T23:02:53.181Z,96.10
2023-04-18T23:05:21.866Z,104.30
2023-04-18T23:07:50.835Z,95.60
2023-04-18T23:10:19.515Z,97.00
2023-04-18T23:12:48.315Z,96.40
2023-04-18T23:15:17.605Z,95.70
2023-04-18T23:17:46.153Z,89.60
2023-04-18T23:20:14.981Z,104.40
2023-04-18T23:22:43.558Z,96.90
2023-04-18T23:25:12.865Z,105.30
2023-04-18T23:27:42.264Z,93.50
2023-04-18T23:30:11.261Z,101.80
2023-04-18T23:32:39.736Z,101.10
2023-04-18T23:35:08.938Z,109.50
2023-04-18T23:37:37.421Z,111.20
2023-04-18T23:40:07.012Z,105.60
2023-04-18T23:42:36.237Z,105.60
2023-04-18T23:45:06.063Z,100.40
2023-04-18T23:47:34.891Z,93.90
2023-04-18T23:50:03.299Z,97.90
2023-04-18T23:52:32.000Z,106.70
2023-04-18T23:55:01.395Z,96.70
2023-04-18T23:57:29.768Z,84.20
2023-04-18T23:59:58.347Z,87.00
